Time;durP1;ratioP1;P1;durP2;ratioP2;P2;SDS_P1;SDS_P2;PMS_P1;PMS_P2;Temp;Humidity;BMP_temperature;BMP_pressure;BME280_temperature;BME280_humidity;BME280_pressure;Samples;Min_cycle;Max_cycle;Signal;HPM_P1;HPM_P2
2024/01/18 00:02:22;;;;;;;122.03;44.03;;;;;;;;;;4995691;28;20274;-43
2024/01/18 00:04:48;;;;;;;25.65;19.48;;;;;;;;;;4994843;28;20173;-43
2024/01/18 00:07:14;;;;;;;115.80;41.78;;;;;;;;;;4994486;28;20177;-43
2024/01/18 00:09:40;;;;;;;81.25;34.97;;;;;;;;;;4996401;28;20185;-43
2024/01/18 00:12:06;;;;;;;141.47;48.90;;;;;;;;;;4995731;28;20204;-43
2024/01/18 00:14:32;;;;;;;161.93;52.53;;;;;;;;;;4996243;28;20786;-43
2024/01/18 00:16:58;;;;;;;155.00;50.70;;;;;;;;;;4995510;28;20204;-43
2024/01/18 00:19:24;;;;;;;163.52;52.00;;;;;;;;;;4995616;28;20912;-43
2024/01/18 00:21:50;;;;;;;167.33;53.40;;;;;;;;;;4995466;28;20197;-43
2024/01/18 00:24:16;;;;;;;17.03;15.63;;;;;;;;;;4995791;28;20416;-43
2024/01/18 00:26:42;;;;;;;153.57;48.97;;;;;;;;;;4995321;28;20467;-43
2024/01/18 00:29:08;;;;;;;167.83;52.33;;;;;;;;;;4995148;28;20450;-42
2024/01/18 00:31:34;;;;;;;140.75;45.42;;;;;;;;;;4995226;28;20478;-42
2024/01/18 00:34:00;;;;;;;12.57;11.37;;;;;;;;;;4995429;28;20185;-44
2024/01/18 00:36:27;;;;;;;168.75;51.20;;;;;;;;;;4995201;28;20408;-43
2024/01/18 00:38:53;;;;;;;158.80;49.15;;;;;;;;;;4995305;28;20185;-43
2024/01/18 00:41:20;;;;;;;175.87;53.63;;;;;;;;;;4995548;28;20208;-43
2024/01/18 00:43:46;;;;;;;174.48;53.15;;;;;;;;;;4995212;28;20447;-43
2024/01/18 00:46:12;;;;;;;176.18;53.53;;;;;;;;;;4995344;28;20193;-43
2024/01/18 00:48:38;;;;;;;173.60;53.10;;;;;;;;;;4995445;28;20629;-43
2024/01/18 00:51:04;;;;;;;175.87;54.40;;;;;;;;;;4994680;28;20800;-43
2024/01/18 00:53:30;;;;;;;172.77;51.78;;;;;;;;;;4994511;28;20409;-43
2024/01/18 00:55:56;;;;;;;159.02;48.03;;;;;;;;;;4995154;28;20185;-43
2024/01/18 00:58:22;;;;;;;169.95;52.63;;;;;;;;;;4995380;28;20184;-43
2024/01/18 01:00:48;;;;;;;148.33;46.47;;;;;;;;;;4994745;28;20200;-43
2024/01/18 01:03:14;;;;;;;139.57;44.78;;;;;;;;;;4995280;28;20404;-43
2024/01/18 01:05:40;;;;;;;180.82;53.53;;;;;;;;;;4995603;28;20288;-43
2024/01/18 01:08:06;;;;;;;178.63;52.78;;;;;;;;;;4995150;28;20208;-43
2024/01/18 01:10:32;;;;;;;184.68;53.95;;;;;;;;;;4994992;28;20170;-43
2024/01/18 01:12:58;;;;;;;183.67;53.30;;;;;;;;;;4995396;28;20198;-44
2024/01/18 01:15:24;;;;;;;118.33;39.70;;;;;;;;;;4995114;28;20392;-43
2024/01/18 01:17:50;;;;;;;179.47;53.60;;;;;;;;;;4995264;28;20432;-43
2024/01/18 01:20:16;;;;;;;76.80;33.43;;;;;;;;;;4995175;28;20396;-43
2024/01/18 01:22:42;;;;;;;15.10;13.80;;;;;;;;;;4995474;28;20401;-44
2024/01/18 01:25:08;;;;;;;15.53;14.23;;;;;;;;;;4995072;28;20462;-43
2024/01/18 01:27:34;;;;;;;15.50;14.20;;;;;;;;;;4995217;28;20388;-43
2024/01/18 01:30:00;;;;;;;19.57;18.00;;;;;;;;;;4995221;28;20165;-43
2024/01/18 01:32:26;;;;;;;34.53;20.53;;;;;;;;;;4994498;28;20417;-44
2024/01/18 01:34:52;;;;;;;21.40;17.17;;;;;;;;;;4995130;28;20432;-44
2024/01/18 01:37:18;;;;;;;166.02;50.90;;;;;;;;;;4994633;28;20412;-43
2024/01/18 01:39:44;;;;;;;20.00;18.23;;;;;;;;;;4995169;28;20171;-43
2024/01/18 01:42:10;;;;;;;18.58;16.98;;;;;;;;;;4994554;28;20428;-43
2024/01/18 01:44:36;;;;;;;17.10;15.63;;;;;;;;;;4994083;28;20201;-43
2024/01/18 01:47:02;;;;;;;136.37;44.87;;;;;;;;;;4994623;28;20455;-44
2024/01/18 01:49:28;;;;;;;16.30;14.90;;;;;;;;;;4994776;28;20487;-43
2024/01/18 01:51:54;;;;;;;68.70;27.48;;;;;;;;;;4994745;28;20432;-43
2024/01/18 01:54:21;;;;;;;181.80;54.90;;;;;;;;;;4994679;28;20165;-43
2024/01/18 01:56:50;;;;;;;182.07;54.42;;;;;;;;;;4994984;28;20219;-43
2024/01/18 01:59:18;;;;;;;185.00;55.38;;;;;;;;;;4994628;28;20214;-43
2024/01/18 02:01:45;;;;;;;179.73;58.10;;;;;;;;;;4993462;28;20197;-43
2024/01/18 02:04:12;;;;;;;179.52;54.58;;;;;;;;;;4993887;28;20176;-43
2024/01/18 02:06:38;;;;;;;181.07;55.70;;;;;;;;;;4994320;28;20294;-43
2024/01/18 02:09:05;;;;;;;177.13;53.97;;;;;;;;;;4993898;28;20165;-43
2024/01/18 02:11:31;;;;;;;178.30;54.67;;;;;;;;;;4993973;28;20189;-43
2024/01/18 02:13:58;;;;;;;181.30;54.50;;;;;;;;;;4994012;28;20547;-44
2024/01/18 02:16:24;;;;;;;183.88;55.50;;;;;;;;;;4994489;28;20188;-43
2024/01/18 02:18:51;;;;;;;183.07;55.45;;;;;;;;;;4993843;28;20262;-43
2024/01/18 02:21:17;;;;;;;182.35;54.65;;;;;;;;;;4993920;28;20212;-43
2024/01/18 02:23:46;;;;;;;182.20;54.92;;;;;;;;;;4993961;28;20166;-43
2024/01/18 02:26:12;;;;;;;169.95;52.83;;;;;;;;;;4990823;28;20189;-43
2024/01/18 02:28:38;;;;;;;17.73;16.23;;;;;;;;;;4993758;28;20232;-43
2024/01/18 02:31:04;;;;;;;19.43;17.90;;;;;;;;;;4993534;28;20581;-43
2024/01/18 02:33:32;;;;;;;16.63;15.27;;;;;;;;;;4993926;28;20799;-44
2024/01/18 02:35:58;;;;;;;16.15;14.75;;;;;;;;;;4994034;28;20785;-42
2024/01/18 02:38:25;;;;;;;17.50;15.97;;;;;;;;;;4993925;28;20177;-43
2024/01/18 02:40:51;;;;;;;16.25;14.95;;;;;;;;;;4993580;28;20448;-43
2024/01/18 02:43:17;;;;;;;17.53;16.10;;;;;;;;;;4993449;28;20196;-44
2024/01/18 02:45:43;;;;;;;17.53;16.03;;;;;;;;;;4993653;28;20469;-43
2024/01/18 02:48:09;;;;;;;17.10;15.67;;;;;;;;;;4993234;28;20415;-43
2024/01/18 02:50:40;;;;;;;18.90;17.40;;;;;;;;;;4993173;28;20419;-43
2024/01/18 02:53:06;;;;;;;17.80;16.40;;;;;;;;;;4993794;28;20228;-43
2024/01/18 02:55:32;;;;;;;17.07;15.53;;;;;;;;;;4994218;28;20177;-43
2024/01/18 02:57:58;;;;;;;15.40;14.13;;;;;;;;;;4996197;28;20503;-43
2024/01/18 03:00:24;;;;;;;19.73;18.03;;;;;;;;;;4996938;28;20404;-43
2024/01/18 03:02:50;;;;;;;20.75;19.23;;;;;;;;;;4997504;28;20416;-43
2024/01/18 03:05:16;;;;;;;21.63;18.00;;;;;;;;;;4996950;28;20201;-43
2024/01/18 03:07:42;;;;;;;140.77;47.93;;;;;;;;;;4997066;28;20817;-43
2024/01/18 03:10:08;;;;;;;170.37;55.03;;;;;;;;;;4997038;28;20405;-42
2024/01/18 03:12:37;;;;;;;19.75;17.42;;;;;;;;;;4997244;28;20416;-44
2024/01/18 03:15:03;;;;;;;17.63;16.13;;;;;;;;;;4997178;28;20173;-43
2024/01/18 03:17:29;;;;;;;16.17;14.82;;;;;;;;;;4997061;28;20177;-44
2024/01/18 03:19:55;;;;;;;172.13;54.97;;;;;;;;;;4996988;28;20243;-44
2024/01/18 03:22:21;;;;;;;178.32;57.38;;;;;;;;;;4996878;28;20197;-43
2024/01/18 03:24:47;;;;;;;177.53;57.70;;;;;;;;;;4997006;28;20703;-43
2024/01/18 03:27:13;;;;;;;79.40;33.67;;;;;;;;;;4996866;28;21109;-43
2024/01/18 03:29:39;;;;;;;102.22;38.10;;;;;;;;;;4997296;28;20904;-43
2024/01/18 03:32:05;;;;;;;77.18;32.95;;;;;;;;;;4996699;28;20280;-43
2024/01/18 03:34:32;;;;;;;15.73;14.45;;;;;;;;;;4997230;28;20173;-43
2024/01/18 03:36:58;;;;;;;18.80;17.40;;;;;;;;;;4996952;28;20173;-43
2024/01/18 03:39:24;;;;;;;19.10;17.60;;;;;;;;;;4997181;28;20679;-43
2024/01/18 03:41:50;;;;;;;20.70;19.10;;;;;;;;;;4996253;28;20486;-43
2024/01/18 03:44:16;;;;;;;18.57;17.10;;;;;;;;;;4995125;28;20502;-43
2024/01/18 03:46:42;;;;;;;18.13;16.70;;;;;;;;;;4996667;28;20460;-43
2024/01/18 03:49:08;;;;;;;18.43;17.00;;;;;;;;;;4996958;28;20500;-43
2024/01/18 03:51:34;;;;;;;108.95;49.03;;;;;;;;;;4996293;28;20435;-43
2024/01/18 03:54:00;;;;;;;74.13;33.45;;;;;;;;;;4996848;28;20186;-43
2024/01/18 03:56:25;;;;;;;177.30;56.27;;;;;;;;;;4996140;28;20177;-43
2024/01/18 03:58:51;;;;;;;167.87;53.83;;;;;;;;;;4996631;28;20838;-43
2024/01/18 04:01:17;;;;;;;179.77;55.77;;;;;;;;;;4996395;28;20436;-43
2024/01/18 04:03:44;;;;;;;182.73;57.30;;;;;;;;;;4996062;28;20427;-44
2024/01/18 04:06:11;;;;;;;182.75;55.63;;;;;;;;;;4988340;28;20444;-43
2024/01/18 04:08:39;;;;;;;185.40;57.75;;;;;;;;;;4996183;28;20173;-43
2024/01/18 04:11:05;;;;;;;184.68;57.40;;;;;;;;;;4995841;28;20200;-43
2024/01/18 04:13:31;;;;;;;187.50;58.73;;;;;;;;;;4996358;28;20260;-43
2024/01/18 04:15:57;;;;;;;77.33;34.50;;;;;;;;;;4996364;28;20416;-43
2024/01/18 04:18:23;;;;;;;174.07;56.22;;;;;;;;;;4996411;28;20410;-43
2024/01/18 04:20:52;;;;;;;177.57;57.73;;;;;;;;;;4995281;28;20603;-42
2024/01/18 04:23:19;;;;;;;177.73;55.70;;;;;;;;;;4993918;28;20900;-42
2024/01/18 04:25:45;;;;;;;181.40;58.10;;;;;;;;;;4994172;28;20209;-42
2024/01/18 04:28:11;;;;;;;160.80;53.97;;;;;;;;;;4994439;28;20169;-42
2024/01/18 04:30:37;;;;;;;173.15;54.25;;;;;;;;;;4994172;28;20771;-42
2024/01/18 04:33:03;;;;;;;178.27;55.20;;;;;;;;;;4994009;28;20181;-42
2024/01/18 04:35:29;;;;;;;118.35;43.15;;;;;;;;;;4994188;28;20896;-42
2024/01/18 04:37:55;;;;;;;174.87;55.70;;;;;;;;;;4993850;28;20172;-42
2024/01/18 04:40:21;;;;;;;184.73;60.17;;;;;;;;;;4993598;28;20451;-42
2024/01/18 04:42:47;;;;;;;182.18;57.22;;;;;;;;;;4993635;28;20400;-42
2024/01/18 04:45:13;;;;;;;156.93;50.40;;;;;;;;;;4993664;28;20700;-43
2024/01/18 04:47:39;;;;;;;22.92;20.48;;;;;;;;;;4993750;28;20170;-43
2024/01/18 04:50:05;;;;;;;18.02;16.67;;;;;;;;;;4993575;28;20284;-44
2024/01/18 04:52:32;;;;;;;115.63;40.83;;;;;;;;;;4993277;28;20279;-42
2024/01/18 04:55:02;;;;;;;163.02;50.88;;;;;;;;;;4993805;28;20172;-42
2024/01/18 04:57:29;;;;;;;179.65;54.95;;;;;;;;;;4993548;28;20196;-43
2024/01/18 04:59:55;;;;;;;61.08;27.20;;;;;;;;;;4993352;28;20165;-43
2024/01/18 05:02:20;;;;;;;26.65;18.42;;;;;;;;;;4993207;28;20185;-43
2024/01/18 05:04:46;;;;;;;176.67;54.23;;;;;;;;;;4993488;28;20228;-42
2024/01/18 05:07:12;;;;;;;181.30;55.60;;;;;;;;;;4993235;28;20454;-42
2024/01/18 05:09:38;;;;;;;184.40;56.85;;;;;;;;;;4993306;28;20915;-43
2024/01/18 05:12:04;;;;;;;186.33;56.93;;;;;;;;;;4992907;28;20279;-42
2024/01/18 05:14:30;;;;;;;67.93;31.30;;;;;;;;;;4993270;28;20431;-43
2024/01/18 05:17:03;;;;;;;17.90;16.60;;;;;;;;;;4993241;28;20208;-42
2024/01/18 05:19:30;;;;;;;21.85;20.15;;;;;;;;;;4992440;28;20444;-42
2024/01/18 05:21:56;;;;;;;20.50;19.00;;;;;;;;;;4992722;28;20201;-42
2024/01/18 05:24:23;;;;;;;18.97;17.57;;;;;;;;;;4993165;28;20180;-42
2024/01/18 05:26:49;;;;;;;17.90;16.48;;;;;;;;;;4992899;28;20978;-42
2024/01/18 05:29:15;;;;;;;20.17;18.67;;;;;;;;;;4993008;28;20180;-42
2024/01/18 05:31:41;;;;;;;20.00;18.47;;;;;;;;;;4992753;28;20435;-41
2024/01/18 05:34:08;;;;;;;17.10;15.70;;;;;;;;;;4992639;28;21015;-42
2024/01/18 05:36:33;;;;;;;25.90;20.47;;;;;;;;;;4992894;28;20283;-42
2024/01/18 05:38:59;;;;;;;20.20;18.73;;;;;;;;;;4992885;28;20405;-42
2024/01/18 05:41:25;;;;;;;20.20;18.63;;;;;;;;;;4992434;28;20428;-42
2024/01/18 05:43:51;;;;;;;17.30;16.00;;;;;;;;;;4992600;28;20434;-42
2024/01/18 05:46:17;;;;;;;17.60;16.23;;;;;;;;;;4992722;28;20472;-42
2024/01/18 05:48:43;;;;;;;153.70;49.30;;;;;;;;;;4992650;28;20412;-41
2024/01/18 05:51:09;;;;;;;182.52;54.90;;;;;;;;;;4992312;28;20423;-42
2024/01/18 05:53:35;;;;;;;181.90;53.75;;;;;;;;;;4992621;28;20708;-42
2024/01/18 05:56:01;;;;;;;167.32;52.50;;;;;;;;;;4992604;28;20256;-43
2024/01/18 05:58:31;;;;;;;148.57;47.35;;;;;;;;;;4992648;28;20212;-42
2024/01/18 06:00:57;;;;;;;83.30;34.00;;;;;;;;;;4992383;28;20565;-41
2024/01/18 06:03:22;;;;;;;156.90;51.87;;;;;;;;;;4992564;28;20172;-42
2024/01/18 06:05:49;;;;;;;132.00;46.67;;;;;;;;;;4992885;28;20542;-43
2024/01/18 06:08:15;;;;;;;178.45;54.60;;;;;;;;;;4992606;28;20173;-43
2024/01/18 06:10:42;;;;;;;180.65;55.67;;;;;;;;;;4992141;28;20185;-43
2024/01/18 06:13:09;;;;;;;126.18;42.80;;;;;;;;;;4992392;28;20247;-42
2024/01/18 06:15:35;;;;;;;170.68;53.97;;;;;;;;;;4992467;28;20169;-42
2024/01/18 06:18:04;;;;;;;178.67;55.90;;;;;;;;;;4992356;28;20175;-43
2024/01/18 06:20:31;;;;;;;176.90;55.00;;;;;;;;;;4992071;28;20466;-42
2024/01/18 06:23:00;;;;;;;173.77;53.25;;;;;;;;;;4992314;28;20184;-42
2024/01/18 06:25:27;;;;;;;92.03;36.78;;;;;;;;;;4992380;28;20197;-42
2024/01/18 06:27:53;;;;;;;133.23;43.75;;;;;;;;;;4992506;28;20651;-42
2024/01/18 06:30:19;;;;;;;175.33;57.83;;;;;;;;;;4991988;28;20169;-42
2024/01/18 06:32:45;;;;;;;133.27;44.90;;;;;;;;;;4996048;28;20485;-42
2024/01/18 06:35:11;;;;;;;173.90;55.67;;;;;;;;;;4996315;28;20177;-42
2024/01/18 06:37:38;;;;;;;174.05;54.60;;;;;;;;;;4996140;28;20173;-42
2024/01/18 06:40:04;;;;;;;172.80;53.42;;;;;;;;;;4996044;28;20165;-42
2024/01/18 06:42:31;;;;;;;175.00;53.13;;;;;;;;;;4995792;28;20612;-42
2024/01/18 06:44:57;;;;;;;180.68;53.92;;;;;;;;;;4996389;28;20181;-43
2024/01/18 06:47:23;;;;;;;138.25;46.33;;;;;;;;;;4995765;28;20240;-43
2024/01/18 06:49:49;;;;;;;63.47;28.48;;;;;;;;;;4995862;28;20172;-42
2024/01/18 06:52:15;;;;;;;21.93;20.40;;;;;;;;;;4995609;28;20189;-42
2024/01/18 06:54:44;;;;;;;101.30;37.97;;;;;;;;;;4995888;28;20487;-43
2024/01/18 06:57:10;;;;;;;176.82;54.00;;;;;;;;;;4995830;28;20672;-42
2024/01/18 06:59:36;;;;;;;178.30;54.23;;;;;;;;;;4995519;28;20184;-43
2024/01/18 07:02:02;;;;;;;178.55;54.28;;;;;;;;;;4995352;28;20436;-43
2024/01/18 07:04:28;;;;;;;181.00;54.47;;;;;;;;;;4995775;28;20169;-42
2024/01/18 07:06:54;;;;;;;68.85;29.42;;;;;;;;;;4995955;28;20197;-42
2024/01/18 07:09:20;;;;;;;177.27;53.30;;;;;;;;;;4995563;28;20535;-42
2024/01/18 07:11:46;;;;;;;180.77;53.27;;;;;;;;;;4995316;28;20531;-43
2024/01/18 07:14:13;;;;;;;182.17;53.97;;;;;;;;;;4995365;28;20400;-42
2024/01/18 07:16:39;;;;;;;184.68;54.85;;;;;;;;;;4995371;28;20443;-42
2024/01/18 07:19:05;;;;;;;181.50;53.37;;;;;;;;;;4995580;28;20192;-42
2024/01/18 07:21:31;;;;;;;183.17;54.07;;;;;;;;;;4995147;28;20431;-42
2024/01/18 07:23:57;;;;;;;182.27;54.78;;;;;;;;;;4995244;28;20400;-42
2024/01/18 07:26:23;;;;;;;162.67;49.20;;;;;;;;;;4995161;28;20750;-43
2024/01/18 07:28:49;;;;;;;179.07;54.93;;;;;;;;;;4995111;28;20956;-42
2024/01/18 07:31:15;;;;;;;176.17;52.67;;;;;;;;;;4995034;28;20776;-42
2024/01/18 07:33:41;;;;;;;176.67;54.00;;;;;;;;;;4995071;28;20435;-42
2024/01/18 07:36:07;;;;;;;188.60;60.23;;;;;;;;;;4992901;28;20491;-42
2024/01/18 07:38:33;;;;;;;141.15;46.65;;;;;;;;;;4993265;28;20452;-42
2024/01/18 07:40:59;;;;;;;176.77;53.27;;;;;;;;;;4994287;28;20308;-42
2024/01/18 07:43:25;;;;;;;179.73;53.23;;;;;;;;;;4993688;28;20428;-42
2024/01/18 07:45:50;;;;;;;129.82;43.42;;;;;;;;;;4994609;28;20471;-42
2024/01/18 07:48:16;;;;;;;180.33;52.60;;;;;;;;;;4994883;28;20177;-42
2024/01/18 07:50:43;;;;;;;171.23;51.75;;;;;;;;;;4994342;28;20424;-42
2024/01/18 07:53:11;;;;;;;179.40;53.47;;;;;;;;;;4994553;28;20161;-42
2024/01/18 07:55:37;;;;;;;177.55;53.25;;;;;;;;;;4994510;28;20172;-42
2024/01/18 07:58:03;;;;;;;177.93;52.65;;;;;;;;;;4993386;28;20177;-42
2024/01/18 08:00:29;;;;;;;178.13;51.28;;;;;;;;;;4994365;28;20173;-43
2024/01/18 08:02:56;;;;;;;178.52;51.63;;;;;;;;;;4994367;28;20613;-42
2024/01/18 08:05:24;;;;;;;177.43;51.65;;;;;;;;;;4994307;28;20176;-42
2024/01/18 08:07:50;;;;;;;178.60;51.78;;;;;;;;;;4994342;28;20173;-42
2024/01/18 08:10:16;;;;;;;184.52;55.17;;;;;;;;;;4993911;28;20645;-42
2024/01/18 08:12:45;;;;;;;143.87;43.57;;;;;;;;;;4993999;28;20212;-42
2024/01/18 08:15:13;;;;;;;70.45;30.75;;;;;;;;;;4994260;28;20401;-41
2024/01/18 08:17:39;;;;;;;158.30;50.22;;;;;;;;;;4994270;28;20252;-42
2024/01/18 08:20:16;;;;;;;162.97;50.50;;;;;;;;;;4994032;28;20223;-44
2024/01/18 08:22:42;;;;;;;82.47;31.55;;;;;;;;;;4994062;28;20494;-42
2024/01/18 08:25:10;;;;;;;114.55;40.25;;;;;;;;;;4994367;28;20173;-42
2024/01/18 08:27:36;;;;;;;134.73;45.78;;;;;;;;;;4993963;28;20189;-42
2024/01/18 08:30:03;;;;;;;167.80;51.93;;;;;;;;;;4993879;28;20265;-42
2024/01/18 08:32:33;;;;;;;175.55;52.75;;;;;;;;;;4992654;28;20432;-43
2024/01/18 08:34:59;;;;;;;181.65;53.60;;;;;;;;;;4993255;28;20205;-42
2024/01/18 08:37:25;;;;;;;178.33;52.23;;;;;;;;;;4993173;28;20252;-44
2024/01/18 08:39:52;;;;;;;181.53;51.00;;;;;;;;;;4993014;28;20416;-42
2024/01/18 08:42:17;;;;;;;183.02;51.80;;;;;;;;;;4992923;28;20526;-43
2024/01/18 08:44:45;;;;;;;180.37;50.40;;;;;;;;;;4992992;28;20227;-42
2024/01/18 08:47:14;;;;;;;185.10;52.08;;;;;;;;;;4985296;28;20468;-42
2024/01/18 08:49:41;;;;;;;185.35;50.58;;;;;;;;;;4993488;28;20231;-42
2024/01/18 08:52:08;;;;;;;192.30;54.72;;;;;;;;;;4993121;28;20251;-42
2024/01/18 08:54:34;;;;;;;193.43;56.35;;;;;;;;;;4992014;28;20231;-41
2024/01/18 08:57:00;;;;;;;192.13;54.53;;;;;;;;;;4993454;28;20590;-42
2024/01/18 08:59:26;;;;;;;193.95;56.50;;;;;;;;;;4993482;28;20648;-42
2024/01/18 09:01:53;;;;;;;158.00;49.47;;;;;;;;;;4999338;28;20215;-42
2024/01/18 09:04:19;;;;;;;192.20;57.03;;;;;;;;;;4993809;28;20445;-42
2024/01/18 09:06:46;;;;;;;191.27;58.23;;;;;;;;;;4993412;28;20599;-41
2024/01/18 09:09:13;;;;;;;195.55;58.22;;;;;;;;;;4985942;28;20404;-42
2024/01/18 09:11:39;;;;;;;200.63;60.65;;;;;;;;;;4993637;28;20671;-42
2024/01/18 09:14:05;;;;;;;201.98;62.20;;;;;;;;;;4993477;28;20177;-42
2024/01/18 09:16:32;;;;;;;202.55;63.13;;;;;;;;;;4993459;28;20173;-42
2024/01/18 09:18:58;;;;;;;202.63;62.22;;;;;;;;;;4993013;28;20224;-42
2024/01/18 09:21:26;;;;;;;216.35;66.05;;;;;;;;;;4992488;28;20204;-42
2024/01/18 09:23:52;;;;;;;220.73;70.28;;;;;;;;;;4991587;28;20243;-42
2024/01/18 09:26:18;;;;;;;222.60;69.88;;;;;;;;;;4992825;28;20674;-42
2024/01/18 09:28:44;;;;;;;219.30;71.78;;;;;;;;;;4990675;28;20197;-43
2024/01/18 09:31:11;;;;;;;221.68;74.93;;;;;;;;;;4992347;28;20199;-43
2024/01/18 09:33:40;;;;;;;219.18;73.63;;;;;;;;;;4992906;28;20168;-42
2024/01/18 09:36:06;;;;;;;218.25;71.05;;;;;;;;;;4992084;28;20242;-43
2024/01/18 09:38:34;;;;;;;223.13;75.57;;;;;;;;;;4992985;28;20329;-43
2024/01/18 09:41:04;;;;;;;224.70;78.68;;;;;;;;;;4992647;28;20201;-43
2024/01/18 09:43:36;;;;;;;226.07;77.90;;;;;;;;;;4992882;28;20654;-44
2024/01/18 09:46:04;;;;;;;233.77;85.18;;;;;;;;;;4992932;28;20647;-42
2024/01/18 09:48:31;;;;;;;202.65;75.43;;;;;;;;;;4992506;28;20202;-42
2024/01/18 09:50:58;;;;;;;237.02;82.55;;;;;;;;;;4992545;28;20215;-43
2024/01/18 09:53:25;;;;;;;235.48;79.95;;;;;;;;;;4992629;28;20172;-42
2024/01/18 09:55:53;;;;;;;237.43;83.53;;;;;;;;;;4992139;28;20177;-44
2024/01/18 09:58:19;;;;;;;237.13;80.97;;;;;;;;;;4991250;28;20695;-44
2024/01/18 10:00:52;;;;;;;235.05;78.78;;;;;;;;;;4992202;28;20260;-43
2024/01/18 10:03:19;;;;;;;229.00;75.13;;;;;;;;;;4992727;28;20184;-43
2024/01/18 10:05:46;;;;;;;217.20;74.25;;;;;;;;;;4991508;28;20202;-43
2024/01/18 10:08:12;;;;;;;216.75;74.47;;;;;;;;;;4993003;28;20583;-43
2024/01/18 10:10:38;;;;;;;217.55;75.45;;;;;;;;;;4992818;28;20195;-43
2024/01/18 10:13:05;;;;;;;211.43;73.33;;;;;;;;;;4993061;28;20164;-45
2024/01/18 10:15:33;;;;;;;216.65;71.97;;;;;;;;;;4992693;28;20918;-43
2024/01/18 10:18:03;;;;;;;55.22;32.72;;;;;;;;;;4992752;28;20180;-42
2024/01/18 10:20:30;;;;;;;209.00;70.72;;;;;;;;;;4993025;28;20173;-45
2024/01/18 10:22:56;;;;;;;215.70;69.60;;;;;;;;;;4992458;28;20594;-43
2024/01/18 10:25:28;;;;;;;215.37;72.70;;;;;;;;;;4992613;28;20165;-43
2024/01/18 10:27:56;;;;;;;214.63;70.25;;;;;;;;;;4992692;28;20405;-42
2024/01/18 10:30:23;;;;;;;215.13;77.65;;;;;;;;;;4992281;28;20175;-43
2024/01/18 10:32:51;;;;;;;218.10;77.10;;;;;;;;;;4992590;28;20364;-43
2024/01/18 10:35:28;;;;;;;211.20;71.68;;;;;;;;;;4992571;28;20192;-43
2024/01/18 10:38:00;;;;;;;208.00;71.10;;;;;;;;;;4992855;28;20176;-43
2024/01/18 10:40:27;;;;;;;212.15;73.15;;;;;;;;;;4992326;28;20253;-44
2024/01/18 10:42:55;;;;;;;209.93;71.95;;;;;;;;;;4992852;28;20223;-42
2024/01/18 10:45:21;;;;;;;209.77;72.45;;;;;;;;;;4992568;28;20161;-42
2024/01/18 10:47:47;;;;;;;210.57;70.90;;;;;;;;;;4992542;28;20646;-43
2024/01/18 10:50:13;;;;;;;27.77;26.07;;;;;;;;;;4992235;28;20407;-43
2024/01/18 10:52:40;;;;;;;24.47;22.13;;;;;;;;;;4992294;28;20507;-44
2024/01/18 10:55:09;;;;;;;22.23;20.93;;;;;;;;;;4992110;28;20897;-43
2024/01/18 10:57:35;;;;;;;19.60;18.40;;;;;;;;;;4992487;28;20402;-43
2024/01/18 11:00:02;;;;;;;24.03;22.53;;;;;;;;;;4992330;28;20891;-43
2024/01/18 11:02:28;;;;;;;20.07;18.83;;;;;;;;;;4992067;28;20916;-43
2024/01/18 11:04:56;;;;;;;31.90;29.52;;;;;;;;;;4991167;28;20475;-42
2024/01/18 11:07:23;;;;;;;57.47;52.77;;;;;;;;;;4992184;28;20202;-44
2024/01/18 11:09:50;;;;;;;48.83;44.67;;;;;;;;;;4991895;28;20425;-43
2024/01/18 11:12:18;;;;;;;53.40;48.93;;;;;;;;;;4991537;28;20901;-43
2024/01/18 11:14:44;;;;;;;48.97;45.57;;;;;;;;;;4992069;28;20418;-43
2024/01/18 11:17:21;;;;;;;49.27;44.83;;;;;;;;;;4992108;28;20407;-43
2024/01/18 11:19:49;;;;;;;52.00;47.50;;;;;;;;;;4995319;28;20407;-43
2024/01/18 11:22:33;;;;;;;50.97;46.47;;;;;;;;;;4995028;28;20997;-43
2024/01/18 11:25:07;;;;;;;50.27;46.00;;;;;;;;;;4995451;28;20768;-43
2024/01/18 11:27:42;;;;;;;52.40;48.13;;;;;;;;;;4995264;28;20460;-43
2024/01/18 11:30:10;;;;;;;54.43;50.07;;;;;;;;;;4994965;28;20435;-45
2024/01/18 11:32:37;;;;;;;55.23;50.80;;;;;;;;;;4994786;28;20434;-43
2024/01/18 11:35:10;;;;;;;52.00;47.93;;;;;;;;;;4990702;28;20429;-43
2024/01/18 11:37:38;;;;;;;56.77;52.07;;;;;;;;;;4995081;28;20423;-43
2024/01/18 11:40:06;;;;;;;57.93;53.37;;;;;;;;;;4994734;28;20778;-43
2024/01/18 11:42:33;;;;;;;41.93;38.70;;;;;;;;;;4994989;28;20422;-43
2024/01/18 11:45:03;;;;;;;54.73;50.30;;;;;;;;;;4993316;28;20469;-43
2024/01/18 11:47:30;;;;;;;51.23;47.23;;;;;;;;;;4994897;28;20456;-43
2024/01/18 11:49:57;;;;;;;50.57;46.00;;;;;;;;;;4994708;28;20405;-43
2024/01/18 11:52:23;;;;;;;54.20;49.90;;;;;;;;;;4994439;28;20792;-43
2024/01/18 11:54:52;;;;;;;46.97;43.90;;;;;;;;;;4994471;28;20463;-43
2024/01/18 11:57:19;;;;;;;45.33;42.33;;;;;;;;;;4994988;28;20499;-44
2024/01/18 11:59:48;;;;;;;45.13;41.90;;;;;;;;;;4994322;28;20440;-43
2024/01/18 12:02:15;;;;;;;58.10;53.47;;;;;;;;;;4994082;28;20939;-42
2024/01/18 12:04:42;;;;;;;55.43;51.40;;;;;;;;;;4994812;28;20421;-42
2024/01/18 12:07:09;;;;;;;54.93;51.13;;;;;;;;;;4994120;28;20982;-42
2024/01/18 12:09:35;;;;;;;55.73;51.83;;;;;;;;;;4994159;28;20428;-42
2024/01/18 12:12:01;;;;;;;57.67;53.27;;;;;;;;;;4993812;28;20423;-42
2024/01/18 12:14:27;;;;;;;59.33;54.93;;;;;;;;;;4994191;28;20807;-43
2024/01/18 12:16:54;;;;;;;52.80;48.90;;;;;;;;;;4993797;28;20773;-43
2024/01/18 12:19:49;;;;;;;53.53;49.43;;;;;;;;;;4995125;28;20418;-43
2024/01/18 12:22:17;;;;;;;48.65;44.72;;;;;;;;;;4985119;28;20431;-43
2024/01/18 12:24:43;;;;;;;53.13;48.93;;;;;;;;;;4993890;28;20165;-43
2024/01/18 12:27:09;;;;;;;54.20;49.70;;;;;;;;;;4993844;28;20459;-43
2024/01/18 12:29:40;;;;;;;54.53;50.08;;;;;;;;;;4993720;28;20767;-43
2024/01/18 12:32:06;;;;;;;42.78;39.42;;;;;;;;;;4993560;28;20193;-43
2024/01/18 12:34:32;;;;;;;37.72;34.72;;;;;;;;;;4993714;28;20193;-42
2024/01/18 12:37:00;;;;;;;58.60;53.88;;;;;;;;;;4993636;28;20236;-42
2024/01/18 12:39:26;;;;;;;59.47;54.38;;;;;;;;;;4993618;28;20165;-43
2024/01/18 12:41:54;;;;;;;47.47;43.73;;;;;;;;;;4993418;28;20200;-42
2024/01/18 12:44:21;;;;;;;48.20;44.33;;;;;;;;;;4993490;28;20840;-42
2024/01/18 12:46:58;;;;;;;54.22;49.38;;;;;;;;;;4993451;28;20292;-42
2024/01/18 12:49:25;;;;;;;53.63;49.00;;;;;;;;;;4993578;28;20169;-42
2024/01/18 12:51:55;;;;;;;39.40;36.13;;;;;;;;;;4993067;28;20230;-42
2024/01/18 12:54:22;;;;;;;56.97;51.83;;;;;;;;;;4993456;28;20168;-42
2024/01/18 12:57:09;;;;;;;37.67;34.95;;;;;;;;;;4992759;28;20177;-42
2024/01/18 12:59:36;;;;;;;47.58;43.53;;;;;;;;;;4992853;28;20165;-42
2024/01/18 13:02:04;;;;;;;22.65;21.00;;;;;;;;;;4991763;28;20283;-43
2024/01/18 13:04:32;;;;;;;81.70;40.33;;;;;;;;;;4992519;28;20223;-42
2024/01/18 13:06:59;;;;;;;177.55;66.03;;;;;;;;;;4993027;28;20619;-42
2024/01/18 13:09:28;;;;;;;205.23;67.53;;;;;;;;;;4993305;28;20211;-42
2024/01/18 13:11:59;;;;;;;199.07;66.85;;;;;;;;;;4992872;28;20695;-42
2024/01/18 13:14:27;;;;;;;200.32;68.32;;;;;;;;;;4993118;28;20169;-43
2024/01/18 13:16:55;;;;;;;203.02;67.97;;;;;;;;;;4992710;28;20241;-42
2024/01/18 13:19:22;;;;;;;207.57;68.25;;;;;;;;;;4993223;28;20190;-42
2024/01/18 13:21:53;;;;;;;207.80;66.90;;;;;;;;;;4992784;28;20267;-42
2024/01/18 13:24:19;;;;;;;201.95;66.22;;;;;;;;;;4992958;28;20246;-42
2024/01/18 13:26:47;;;;;;;206.55;68.05;;;;;;;;;;4993072;28;20221;-42
2024/01/18 13:29:17;;;;;;;202.45;68.28;;;;;;;;;;4995055;28;20163;-42
2024/01/18 13:31:43;;;;;;;201.15;65.88;;;;;;;;;;4992798;28;20196;-42
2024/01/18 13:34:09;;;;;;;200.40;66.82;;;;;;;;;;4992798;28;20169;-42
2024/01/18 13:36:35;;;;;;;194.60;65.07;;;;;;;;;;4993009;28;20364;-42
2024/01/18 13:39:01;;;;;;;186.48;64.43;;;;;;;;;;4991487;28;20408;-42
2024/01/18 13:41:28;;;;;;;184.18;64.88;;;;;;;;;;4991814;28;20227;-42
2024/01/18 13:43:54;;;;;;;184.35;61.92;;;;;;;;;;4992319;28;20569;-42
2024/01/18 13:46:22;;;;;;;191.38;66.22;;;;;;;;;;4991447;28;20588;-43
2024/01/18 13:48:49;;;;;;;184.52;63.17;;;;;;;;;;4992474;28;20165;-41
2024/01/18 13:51:15;;;;;;;184.40;64.70;;;;;;;;;;4992134;28;20276;-42
2024/01/18 13:53:45;;;;;;;184.13;64.43;;;;;;;;;;4991219;28;20170;-42
2024/01/18 13:56:14;;;;;;;182.73;63.80;;;;;;;;;;4992406;28;20168;-42
2024/01/18 13:58:41;;;;;;;191.05;67.35;;;;;;;;;;4991898;28;20541;-42
2024/01/18 14:01:07;;;;;;;190.13;68.10;;;;;;;;;;4990378;28;20199;-42
2024/01/18 14:03:33;;;;;;;172.98;60.28;;;;;;;;;;4992497;28;20470;-42
2024/01/18 14:06:00;;;;;;;189.37;63.13;;;;;;;;;;4992534;28;20700;-42
2024/01/18 14:08:27;;;;;;;189.60;63.63;;;;;;;;;;4992452;28;20428;-42